Time;durP1;ratioP1;P1;durP2;ratioP2;P2;SDS_P1;SDS_P2;PMS_P1;PMS_P2;Temp;Humidity;BMP_temperature;BMP_pressure;BME280_temperature;BME280_humidity;BME280_pressure;Samples;Min_cycle;Max_cycle;Signal;HPM_P1;HPM_P2
2023/10/25 00:00:17;;;;;;;;;;;;;;;12.68;95.79;94862.38;5154708;27;988;-63
2023/10/25 00:03:02;;;;;;;;;;;;;;;12.72;95.25;94852.94;5154966;27;1528;-63
2023/10/25 00:05:45;;;;;;;;;;;;;;;12.76;95.24;94854.25;5154715;27;1039;-63
2023/10/25 00:08:11;;;;;;;;;;;;;;;12.89;95.01;94853.63;5158261;27;1087;-63
2023/10/25 00:10:37;;;;;;;;;;;;;;;12.66;94.05;94848.31;5158589;27;1094;-63
2023/10/25 00:13:03;;;;;;;;;;;;;;;12.74;94.88;94844.72;5158546;27;968;-63
2023/10/25 00:15:29;;;;;;;;;;;;;;;12.51;95.29;94842.91;5158558;27;1035;-63
2023/10/25 00:17:55;;;;;;;;;;;;;;;12.58;95.42;94838.50;5158536;27;1906;-63
2023/10/25 00:20:21;;;;;;;;;;;;;;;12.69;95.32;94848.78;5158272;27;1110;-63
2023/10/25 00:22:47;;;;;;;;;;;;;;;12.70;95.39;94838.88;5158427;27;1032;-63
2023/10/25 00:25:13;;;;;;;;;;;;;;;12.77;94.94;94839.00;5158148;27;1051;-63
2023/10/25 00:27:39;;;;;;;;;;;;;;;12.89;94.48;94850.94;5158174;27;1067;-63
2023/10/25 00:30:05;;;;;;;;;;;;;;;12.86;94.90;94853.97;5158059;27;1071;-63
2023/10/25 00:32:31;;;;;;;;;;;;;;;12.72;95.17;94852.94;5155233;27;1184;-63
2023/10/25 00:34:57;;;;;;;;;;;;;;;12.61;95.33;94850.69;5137337;27;1123;-63
2023/10/25 00:37:23;;;;;;;;;;;;;;;12.55;96.04;94851.44;5137183;27;1910;-63
2023/10/25 00:39:49;;;;;;;;;;;;;;;12.47;96.25;94841.59;5137283;27;1195;-63
2023/10/25 00:42:15;;;;;;;;;;;;;;;12.49;96.32;94840.41;5137156;27;974;-63
2023/10/25 00:44:41;;;;;;;;;;;;;;;12.53;96.48;94832.00;5137120;27;981;-63
2023/10/25 00:47:07;;;;;;;;;;;;;;;12.74;95.82;94816.03;5137355;27;1021;-63
2023/10/25 00:49:34;;;;;;;;;;;;;;;12.88;94.54;94807.19;5137367;27;1048;-63
2023/10/25 00:52:00;;;;;;;;;;;;;;;12.96;93.86;94821.56;5136952;27;979;-63
2023/10/25 00:54:26;;;;;;;;;;;;;;;12.91;94.11;94816.72;5137033;27;1011;-63
2023/10/25 00:56:55;;;;;;;;;;;;;;;12.75;95.29;94808.81;5137032;27;957;-63
2023/10/25 00:59:22;;;;;;;;;;;;;;;12.69;95.39;94805.88;5136993;27;2012;-63
2023/10/25 01:01:49;;;;;;;;;;;;;;;12.76;95.27;94808.66;5136819;27;1040;-63
2023/10/25 01:04:15;;;;;;;;;;;;;;;12.75;95.14;94809.69;5136862;27;965;-63
2023/10/25 01:06:41;;;;;;;;;;;;;;;12.65;95.67;94814.44;5136911;27;1129;-63
2023/10/25 01:09:07;;;;;;;;;;;;;;;12.37;96.70;94819.56;5136578;27;1075;-63
2023/10/25 01:11:33;;;;;;;;;;;;;;;12.46;96.24;94824.69;5136644;27;987;-63
2023/10/25 01:14:00;;;;;;;;;;;;;;;12.54;96.04;94831.84;5136580;27;1012;-63
2023/10/25 01:16:26;;;;;;;;;;;;;;;12.55;95.69;94828.13;5118521;27;1044;-63
2023/10/25 01:18:51;;;;;;;;;;;;;;;12.59;95.56;94823.22;5136156;27;1913;-63
2023/10/25 01:21:18;;;;;;;;;;;;;;;12.58;95.58;94819.72;5136347;27;1057;-63
2023/10/25 01:23:44;;;;;;;;;;;;;;;12.53;95.09;94830.16;5136528;27;975;-63
2023/10/25 01:26:10;;;;;;;;;;;;;;;12.30;96.12;94827.50;5136368;27;1000;-63
2023/10/25 01:28:36;;;;;;;;;;;;;;;12.36;96.52;94837.50;5136310;27;1104;-63
2023/10/25 01:31:02;;;;;;;;;;;;;;;12.43;95.89;94829.59;5136448;27;1045;-63
2023/10/25 01:33:28;;;;;;;;;;;;;;;12.49;95.52;94837.72;5147253;27;1169;-63
2023/10/25 01:35:54;;;;;;;;;;;;;;;12.64;95.12;94829.72;5156849;27;1127;-63
2023/10/25 01:38:20;;;;;;;;;;;;;;;12.55;94.81;94822.75;5156786;27;1917;-63
2023/10/25 01:40:46;;;;;;;;;;;;;;;12.46;95.84;94813.13;5156869;27;1051;-63
2023/10/25 01:43:12;;;;;;;;;;;;;;;12.49;95.83;94815.44;5156639;27;905;-63
2023/10/25 01:45:38;;;;;;;;;;;;;;;12.25;96.53;94811.94;5156993;27;1019;-63
2023/10/25 01:48:04;;;;;;;;;;;;;;;12.12;96.99;94809.03;5156826;27;1047;-63
2023/10/25 01:50:30;;;;;;;;;;;;;;;12.26;96.53;94826.19;5156714;27;1285;-63
2023/10/25 01:52:56;;;;;;;;;;;;;;;12.36;96.05;94824.09;5156627;27;1063;-63
2023/10/25 01:55:22;;;;;;;;;;;;;;;12.44;95.35;94844.63;5156473;27;1071;-63
2023/10/25 01:57:48;;;;;;;;;;;;;;;12.39;96.21;94844.38;5156405;27;1988;-63
2023/10/25 02:00:14;;;;;;;;;;;;;;;12.20;96.46;94842.97;5138275;27;896;-63
2023/10/25 02:02:40;;;;;;;;;;;;;;;12.10;96.66;94840.53;5156559;27;1025;-63
2023/10/25 02:05:06;;;;;;;;;;;;;;;12.29;96.47;94841.91;5138133;27;1015;-63
2023/10/25 02:07:32;;;;;;;;;;;;;;;12.52;96.09;94836.53;5156013;27;1091;-64
2023/10/25 02:09:58;;;;;;;;;;;;;;;12.54;95.77;94834.50;5156328;27;956;-64
2023/10/25 02:12:24;;;;;;;;;;;;;;;12.56;95.21;94823.59;5156101;27;1048;-64
2023/10/25 02:14:50;;;;;;;;;;;;;;;12.35;95.13;94813.53;5156145;27;1087;-64
2023/10/25 02:17:17;;;;;;;;;;;;;;;12.21;96.83;94804.44;5156187;27;964;-64
2023/10/25 02:19:45;;;;;;;;;;;;;;;12.22;97.28;94804.28;5137616;27;1952;-64
2023/10/25 02:22:11;;;;;;;;;;;;;;;12.35;96.82;94802.81;5156031;27;1036;-64
2023/10/25 02:24:37;;;;;;;;;;;;;;;12.26;97.56;94802.06;5156006;27;991;-64
2023/10/25 02:27:03;;;;;;;;;;;;;;;12.34;96.85;94817.25;5155868;27;1014;-64
2023/10/25 02:29:31;;;;;;;;;;;;;;;12.51;96.38;94805.38;5155163;27;976;-64
2023/10/25 02:31:57;;;;;;;;;;;;;;;12.58;95.98;94803.63;5155770;27;1064;-63
2023/10/25 02:34:23;;;;;;;;;;;;;;;12.31;96.88;94794.31;5136864;27;1332;-64
2023/10/25 02:36:49;;;;;;;;;;;;;;;12.09;97.42;94783.44;5134983;27;1040;-64
2023/10/25 02:39:17;;;;;;;;;;;;;;;12.31;97.00;94791.63;5134890;27;1901;-63
2023/10/25 02:41:43;;;;;;;;;;;;;;;12.30;97.44;94782.75;5134874;27;1047;-63
2023/10/25 02:44:09;;;;;;;;;;;;;;;12.47;97.48;94796.84;5135065;27;968;-64
2023/10/25 02:46:35;;;;;;;;;;;;;;;12.51;97.18;94786.59;5134711;27;1099;-64
2023/10/25 02:49:01;;;;;;;;;;;;;;;12.48;97.06;94773.53;5134770;27;1148;-63
2023/10/25 02:51:27;;;;;;;;;;;;;;;12.41;97.43;94767.25;5134814;27;1056;-64
2023/10/25 02:53:54;;;;;;;;;;;;;;;12.61;96.14;94760.34;5134788;27;969;-63
2023/10/25 02:56:20;;;;;;;;;;;;;;;12.77;95.68;94763.91;5134586;27;1119;-64
2023/10/25 02:58:46;;;;;;;;;;;;;;;12.89;94.96;94757.03;5116287;27;1898;-64
2023/10/25 03:01:24;;;;;;;;;;;;;;;12.92;95.30;94755.81;5134715;27;932;-64
2023/10/25 03:03:51;;;;;;;;;;;;;;;12.72;96.01;94755.56;5134578;27;1576;-64
2023/10/25 03:06:17;;;;;;;;;;;;;;;12.72;96.79;94766.28;5134592;27;1047;-64
2023/10/25 03:08:43;;;;;;;;;;;;;;;12.61;97.85;94754.16;5134276;27;1080;-64
2023/10/25 03:11:09;;;;;;;;;;;;;;;12.61;97.43;94744.25;5134605;27;977;-64
2023/10/25 03:13:35;;;;;;;;;;;;;;;12.70;96.71;94739.66;5134246;27;1048;-64
2023/10/25 03:16:01;;;;;;;;;;;;;;;12.55;97.66;94726.22;5134369;27;1135;-65
2023/10/25 03:18:27;;;;;;;;;;;;;;;12.74;97.01;94734.75;5134182;27;1990;-64
2023/10/25 03:20:53;;;;;;;;;;;;;;;12.81;96.69;94722.25;5145921;27;1110;-62
2023/10/25 03:23:20;;;;;;;;;;;;;;;12.59;98.13;94716.78;5154915;27;1016;-63
2023/10/25 03:25:46;;;;;;;;;;;;;;;12.59;98.08;94711.41;5155272;27;980;-63
2023/10/25 03:28:12;;;;;;;;;;;;;;;12.68;97.45;94712.19;5154866;27;1091;-63
2023/10/25 03:30:38;;;;;;;;;;;;;;;12.61;97.62;94716.59;5155177;27;1068;-64
2023/10/25 03:33:04;;;;;;;;;;;;;;;12.73;96.92;94704.41;5147428;27;1137;-63
2023/10/25 03:35:30;;;;;;;;;;;;;;;12.64;97.29;94711.72;5134139;28;992;-64
2023/10/25 03:37:56;;;;;;;;;;;;;;;12.45;98.40;94714.94;5134091;28;1956;-65
2023/10/25 03:40:22;;;;;;;;;;;;;;;12.44;98.38;94705.22;5135186;27;1007;-65
2023/10/25 03:42:48;;;;;;;;;;;;;;;12.31;99.06;94711.19;5138510;27;1194;-65
2023/10/25 03:45:14;;;;;;;;;;;;;;;12.24;98.81;94718.34;5138340;27;1210;-65
2023/10/25 03:47:40;;;;;;;;;;;;;;;12.39;98.40;94713.00;5138348;27;1043;-65
2023/10/25 03:50:06;;;;;;;;;;;;;;;12.29;98.85;94698.00;5138223;27;1059;-65
2023/10/25 03:52:33;;;;;;;;;;;;;;;12.32;99.24;94704.00;5137991;27;1032;-64
2023/10/25 03:54:59;;;;;;;;;;;;;;;12.31;99.93;94697.78;5138351;27;977;-65
2023/10/25 03:57:26;;;;;;;;;;;;;;;12.40;98.82;94690.50;5138161;27;1044;-65
2023/10/25 03:59:52;;;;;;;;;;;;;;;12.44;98.39;94673.88;5137940;27;1926;-65
2023/10/25 04:02:18;;;;;;;;;;;;;;;12.41;97.87;94655.50;5138009;27;945;-65
2023/10/25 04:04:44;;;;;;;;;;;;;;;12.39;98.43;94659.38;5119714;27;1138;-64
2023/10/25 04:07:12;;;;;;;;;;;;;;;12.51;97.48;94663.25;5137667;27;1009;-65
2023/10/25 04:09:38;;;;;;;;;;;;;;;12.44;98.40;94678.41;5138154;27;1047;-63
2023/10/25 04:12:04;;;;;;;;;;;;;;;12.49;98.38;94666.13;5138015;27;987;-65
2023/10/25 04:14:30;;;;;;;;;;;;;;;12.56;97.90;94668.03;5137867;27;1068;-64
2023/10/25 04:16:56;;;;;;;;;;;;;;;12.48;98.47;94663.59;5137748;27;1049;-64
2023/10/25 04:19:22;;;;;;;;;;;;;;;12.62;97.28;94670.00;5137593;27;2005;-63
2023/10/25 04:21:48;;;;;;;;;;;;;;;12.76;96.23;94669.16;5137555;27;974;-64
2023/10/25 04:24:14;;;;;;;;;;;;;;;12.74;96.09;94663.16;5137708;27;1056;-63
2023/10/25 04:26:40;;;;;;;;;;;;;;;12.74;95.75;94657.78;5137737;27;970;-63
2023/10/25 04:29:06;;;;;;;;;;;;;;;12.54;97.31;94662.91;5137604;27;973;-60
2023/10/25 04:31:32;;;;;;;;;;;;;;;12.46;97.79;94671.00;5137288;27;1094;-63
2023/10/25 04:33:59;;;;;;;;;;;;;;;12.26;99.19;94662.69;5137301;27;1145;-64
2023/10/25 04:36:25;;;;;;;;;;;;;;;12.16;99.74;94665.63;5137182;27;1106;-63
2023/10/25 04:38:51;;;;;;;;;;;;;;;12.30;98.73;94655.94;5137439;27;1913;-65
2023/10/25 04:41:17;;;;;;;;;;;;;;;12.52;97.73;94658.72;5137338;27;1048;-64
2023/10/25 04:43:44;;;;;;;;;;;;;;;12.77;95.52;94670.00;5137300;27;969;-63
2023/10/25 04:46:15;;;;;;;;;;;;;;;12.63;96.61;94668.97;5137258;27;957;-63
2023/10/25 04:48:41;;;;;;;;;;;;;;;12.47;97.78;94652.06;5118978;27;965;-64
2023/10/25 04:51:07;;;;;;;;;;;;;;;12.36;98.96;94660.56;5137088;27;973;-63
2023/10/25 04:53:33;;;;;;;;;;;;;;;12.48;97.72;94663.59;5136042;27;1055;-63
2023/10/25 04:56:01;;;;;;;;;;;;;;;12.55;97.70;94659.19;5136947;27;1086;-62
2023/10/25 04:58:27;;;;;;;;;;;;;;;12.56;97.11;94649.28;5136964;27;1918;-62
2023/10/25 05:00:53;;;;;;;;;;;;;;;12.53;97.37;94668.44;5136915;27;1101;-62
2023/10/25 05:03:19;;;;;;;;;;;;;;;12.38;98.01;94668.44;5136743;27;1119;-63
2023/10/25 05:05:46;;;;;;;;;;;;;;;12.45;98.37;94680.09;5118592;27;1022;-64
2023/10/25 05:08:12;;;;;;;;;;;;;;;12.45;97.87;94670.19;5126185;27;1221;-63
2023/10/25 05:10:38;;;;;;;;;;;;;;;12.59;96.74;94676.56;5116102;28;1032;-63
2023/10/25 05:13:04;;;;;;;;;;;;;;;12.70;95.97;94673.41;5116292;28;1068;-63
2023/10/25 05:15:31;;;;;;;;;;;;;;;12.72;95.80;94669.72;5115929;28;1052;-63
2023/10/25 05:17:57;;;;;;;;;;;;;;;12.61;96.27;94657.59;5115973;28;1986;-63
2023/10/25 05:20:23;;;;;;;;;;;;;;;12.60;96.61;94651.41;5115875;28;1039;-63
2023/10/25 05:22:50;;;;;;;;;;;;;;;12.79;95.34;94643.81;5116091;28;980;-63
2023/10/25 05:25:17;;;;;;;;;;;;;;;13.00;94.31;94659.97;5115800;28;1053;-61
2023/10/25 05:27:43;;;;;;;;;;;;;;;12.95;94.90;94661.56;5115992;28;965;-62
2023/10/25 05:30:09;;;;;;;;;;;;;;;12.86;95.55;94666.19;5115860;28;970;-62
2023/10/25 05:32:36;;;;;;;;;;;;;;;12.76;95.84;94658.44;5119144;27;1217;-62
2023/10/25 05:35:03;;;;;;;;;;;;;;;12.62;96.63;94670.84;5117887;27;950;-61
2023/10/25 05:37:29;;;;;;;;;;;;;;;12.84;96.14;94681.63;5136099;27;1098;-61
2023/10/25 05:39:56;;;;;;;;;;;;;;;12.87;96.06;94684.78;5136151;27;1986;-62
2023/10/25 05:42:23;;;;;;;;;;;;;;;12.86;95.40;94668.88;5136154;27;1072;-61
2023/10/25 05:44:56;;;;;;;;;;;;;;;12.61;96.74;94663.78;5135977;27;1474;-62
2023/10/25 05:47:26;;;;;;;;;;;;;;;12.86;95.26;94672.41;5135941;27;1064;-62
2023/10/25 05:49:52;;;;;;;;;;;;;;;12.94;96.33;94674.16;5135873;27;964;-62
2023/10/25 05:52:19;;;;;;;;;;;;;;;12.98;95.66;94659.34;5136051;27;1015;-62
2023/10/25 05:54:45;;;;;;;;;;;;;;;13.18;95.85;94697.13;5135797;27;1063;-61
2023/10/25 05:57:12;;;;;;;;;;;;;;;13.03;96.60;94694.50;5135815;27;1060;-63
2023/10/25 05:59:38;;;;;;;;;;;;;;;13.12;95.97;94705.94;5135779;27;1905;-63
2023/10/25 06:02:11;;;;;;;;;;;;;;;13.17;97.10;94697.34;5135719;27;969;-63
2023/10/25 06:04:38;;;;;;;;;;;;;;;13.39;94.56;94682.13;5135839;27;1016;-64
2023/10/25 06:07:06;;;;;;;;;;;;;;;13.57;94.06;94689.75;5136449;27;1087;-64
2023/10/25 06:09:32;;;;;;;;;;;;;;;13.59;95.44;94703.81;5156285;27;1028;-64
2023/10/25 06:11:58;;;;;;;;;;;;;;;13.64;94.78;94714.84;5156174;27;1052;-62
2023/10/25 06:14:24;;;;;;;;;;;;;;;13.39;95.29;94719.72;5137814;27;1031;-62
2023/10/25 06:16:50;;;;;;;;;;;;;;;13.26;96.07;94715.84;5156143;27;1049;-62
2023/10/25 06:19:16;;;;;;;;;;;;;;;13.25;95.72;94732.13;5155882;27;1988;-62
2023/10/25 06:21:42;;;;;;;;;;;;;;;13.36;95.60;94720.94;5156232;27;1078;-62
2023/10/25 06:24:08;;;;;;;;;;;;;;;13.40;96.18;94727.59;5156130;27;1015;-62
2023/10/25 06:26:34;;;;;;;;;;;;;;;13.42;96.60;94738.13;5155959;27;1137;-62
2023/10/25 06:29:00;;;;;;;;;;;;;;;13.51;97.08;94709.28;5156007;27;1059;-63
2023/10/25 06:31:26;;;;;;;;;;;;;;;13.79;95.37;94714.75;5137462;27;1023;-63
2023/10/25 06:33:53;;;;;;;;;;;;;;;14.02;95.32;94710.03;5141209;27;1149;-62
2023/10/25 06:36:20;;;;;;;;;;;;;;;14.21;93.99;94716.63;5135226;27;977;-62
2023/10/25 06:38:46;;;;;;;;;;;;;;;14.29;94.50;94704.88;5135082;27;2005;-62
2023/10/25 06:41:19;;;;;;;;;;;;;;;14.33;93.95;94695.41;5135007;27;996;-62
2023/10/25 06:43:45;;;;;;;;;;;;;;;14.55;92.50;94703.41;5135036;27;987;-60
2023/10/25 06:46:11;;;;;;;;;;;;;;;14.66;93.55;94702.06;5134720;27;992;-61
2023/10/25 06:48:38;;;;;;;;;;;;;;;14.73;92.88;94711.00;5116722;27;1040;-60
2023/10/25 06:51:05;;;;;;;;;;;;;;;14.74;94.32;94718.03;5134904;27;1001;-61
2023/10/25 06:53:31;;;;;;;;;;;;;;;14.87;92.02;94722.69;5134770;27;1052;-62
2023/10/25 06:55:57;;;;;;;;;;;;;;;14.98;91.77;94725.63;5134657;27;1036;-62
2023/10/25 06:58:23;;;;;;;;;;;;;;;15.09;91.49;94723.44;5134575;27;1952;-62
2023/10/25 07:00:50;;;;;;;;;;;;;;;15.12;93.37;94728.41;5134475;27;1048;-62
2023/10/25 07:03:17;;;;;;;;;;;;;;;15.03;93.39;94727.75;5134622;27;992;-62
2023/10/25 07:05:44;;;;;;;;;;;;;;;14.94;94.00;94713.63;5134691;27;1122;-62
2023/10/25 07:08:10;;;;;;;;;;;;;;;14.96;93.51;94716.13;5134341;27;1064;-62
2023/10/25 07:10:37;;;;;;;;;;;;;;;15.12;91.93;94710.41;5134512;27;1067;-62
2023/10/25 07:13:03;;;;;;;;;;;;;;;15.21;93.68;94721.81;5134445;27;1020;-62
2023/10/25 07:15:31;;;;;;;;;;;;;;;15.22;93.35;94723.50;5133871;27;1032;-61
2023/10/25 07:17:57;;;;;;;;;;;;;;;15.33;93.39;94724.78;5134281;27;1898;-62
2023/10/25 07:20:23;;;;;;;;;;;;;;;15.22;95.16;94728.88;5134108;27;1179;-62
2023/10/25 07:22:49;;;;;;;;;;;;;;;15.14;96.01;94727.19;5134380;27;1036;-62
2023/10/25 07:25:15;;;;;;;;;;;;;;;15.19;95.64;94726.59;5134188;28;1056;-62
2023/10/25 07:27:41;;;;;;;;;;;;;;;15.10;94.90;94725.09;5134324;28;1040;-62
2023/10/25 07:30:07;;;;;;;;;;;;;;;15.13;94.36;94722.81;5134178;28;969;-61
2023/10/25 07:32:35;;;;;;;;;;;;;;;15.26;93.96;94726.63;5137160;27;1192;-62
2023/10/25 07:35:01;;;;;;;;;;;;;;;15.46;91.95;94726.69;5154914;27;1036;-62
2023/10/25 07:37:27;;;;;;;;;;;;;;;15.42;94.95;94734.34;5154895;27;1010;-62
2023/10/25 07:39:53;;;;;;;;;;;;;;;15.47;94.40;94728.38;5154637;27;1910;-64
2023/10/25 07:42:19;;;;;;;;;;;;;;;15.53;94.42;94735.63;5154667;27;1008;-62
2023/10/25 07:44:45;;;;;;;;;;;;;;;15.47;94.36;94731.88;5136501;27;1043;-61
2023/10/25 07:47:11;;;;;;;;;;;;;;;15.52;93.11;94723.22;5154961;27;1051;-61
2023/10/25 07:49:37;;;;;;;;;;;;;;;15.52;93.37;94724.03;5154983;27;1045;-61
2023/10/25 07:52:03;;;;;;;;;;;;;;;15.40;94.75;94723.78;5154966;27;1015;-61
2023/10/25 07:54:29;;;;;;;;;;;;;;;15.47;92.66;94729.19;5154808;27;988;-61
2023/10/25 07:56:55;;;;;;;;;;;;;;;15.50;93.48;94728.78;5154793;27;964;-61
2023/10/25 07:59:21;;;;;;;;;;;;;;;15.45;92.41;94725.88;5154534;27;1921;-61
2023/10/25 08:01:48;;;;;;;;;;;;;;;15.66;90.99;94716.81;5154937;27;1003;-62
2023/10/25 08:04:14;;;;;;;;;;;;;;;15.85;91.40;94725.19;5154574;27;1115;-62
2023/10/25 08:06:41;;;;;;;;;;;;;;;15.92;91.12;94729.56;5154806;27;957;-61
2023/10/25 08:09:07;;;;;;;;;;;;;;;16.02;90.02;94741.81;5154546;27;1328;-62
2023/10/25 08:11:36;;;;;;;;;;;;;;;16.13;89.37;94739.34;5154517;27;1064;-61
2023/10/25 08:14:02;;;;;;;;;;;;;;;16.27;88.91;94737.47;5154632;27;969;-62
2023/10/25 08:16:28;;;;;;;;;;;;;;;16.23;89.46;94738.09;5154739;27;961;-62
2023/10/25 08:18:54;;;;;;;;;;;;;;;16.27;88.41;94745.56;5154678;27;1998;-62
2023/10/25 08:21:20;;;;;;;;;;;;;;;16.40;88.13;94732.09;5154600;27;968;-62
2023/10/25 08:23:51;;;;;;;;;;;;;;;16.54;87.57;94734.78;5154699;27;1313;-61
2023/10/25 08:26:18;;;;;;;;;;;;;;;16.64;87.69;94739.75;5154409;27;969;-61
2023/10/25 08:28:44;;;;;;;;;;;;;;;16.81;87.50;94742.84;5157325;27;1114;-61
2023/10/25 08:31:11;;;;;;;;;;;;;;;16.87;86.59;94734.78;5158446;27;1098;-61
2023/10/25 08:33:36;;;;;;;;;;;;;;;17.07;85.88;94742.84;5145923;27;1164;-61
2023/10/25 08:36:03;;;;;;;;;;;;;;;17.27;85.14;94748.19;5137319;27;1250;-61
2023/10/25 08:38:29;;;;;;;;;;;;;;;17.46;83.97;94748.34;5137332;27;2002;-61
2023/10/25 08:41:02;;;;;;;;;;;;;;;17.59;82.67;94756.41;5137257;27;1087;-61
2023/10/25 08:43:28;;;;;;;;;;;;;;;17.69;81.59;94748.66;5137204;27;1095;-61
2023/10/25 08:45:56;;;;;;;;;;;;;;;17.80;79.66;94749.88;5137395;27;976;-61
2023/10/25 08:48:24;;;;;;;;;;;;;;;17.94;75.89;94746.06;5137233;27;1064;-61
2023/10/25 08:50:49;;;;;;;;;;;;;;;18.22;74.41;94754.88;5119077;27;1082;-61
2023/10/25 08:53:20;;;;;;;;;;;;;;;18.25;76.39;94755.25;5137055;27;1041;-61
2023/10/25 08:55:48;;;;;;;;;;;;;;;18.31;76.94;94753.56;5137071;27;973;-61
2023/10/25 08:58:15;;;;;;;;;;;;;;;18.24;76.40;94747.34;5118422;27;1905;-61
2023/10/25 09:00:41;;;;;;;;;;;;;;;18.18;73.91;94743.66;5137093;27;961;-61
2023/10/25 09:03:07;;;;;;;;;;;;;;;18.23;75.39;94742.97;5137021;27;1033;-61
2023/10/25 09:05:41;;;;;;;;;;;;;;;18.20;77.72;94738.03;5136663;27;1036;-61
2023/10/25 09:08:14;;;;;;;;;;;;;;;18.22;76.48;94744.03;5118546;27;1242;-61
2023/10/25 09:10:40;;;;;;;;;;;;;;;18.23;76.76;94746.53;5136768;27;1063;-61
2023/10/25 09:13:11;;;;;;;;;;;;;;;18.09;78.88;94753.06;5136897;27;981;-61
2023/10/25 09:15:37;;;;;;;;;;;;;;;17.85;81.21;94754.66;5136585;27;1040;-61
2023/10/25 09:18:03;;;;;;;;;;;;;;;17.71;82.33;94745.75;5136465;27;1909;-61
2023/10/25 09:20:29;;;;;;;;;;;;;;;17.76;81.08;94733.25;5136405;27;1112;-61
2023/10/25 09:23:08;;;;;;;;;;;;;;;17.89;81.54;94736.94;5136443;27;1506;-63
2023/10/25 09:25:34;;;;;;;;;;;;;;;18.02;80.97;94736.91;5136375;27;1486;-63
2023/10/25 09:28:00;;;;;;;;;;;;;;;18.10;80.16;94733.09;5136342;27;1087;-61
2023/10/25 09:30:29;;;;;;;;;;;;;;;18.12;81.01;94739.94;5136465;27;1056;-69
2023/10/25 09:32:55;;;;;;;;;;;;;;;18.19;80.56;94725.53;5142343;27;1213;-65
2023/10/25 09:35:22;;;;;;;;;;;;;;;18.28;80.82;94725.03;5156967;27;1027;-68
2023/10/25 09:37:49;;;;;;;;;;;;;;;18.43;80.14;94727.44;5156618;27;1910;-63
2023/10/25 09:40:15;;;;;;;;;;;;;;;18.57;78.56;94719.19;5156829;27;1102;-62
2023/10/25 09:42:49;;;;;;;;;;;;;;;18.79;76.21;94716.94;5156973;27;972;-61
2023/10/25 09:45:20;;;;;;;;;;;;;;;18.99;75.83;94723.03;5156775;27;976;-61
2023/10/25 09:47:52;;;;;;;;;;;;;;;19.19;74.38;94709.25;5156832;27;1034;-62
2023/10/25 09:50:31;;;;;;;;;;;;;;;19.33;71.76;94709.09;5156562;27;994;-61
2023/10/25 09:53:02;;;;;;;;;;;;;;;19.59;70.49;94711.50;5156893;27;1319;-62
2023/10/25 09:55:30;;;;;;;;;;;;;;;19.74;70.74;94710.31;5156691;27;965;-62
2023/10/25 09:57:57;;;;;;;;;;;;;;;19.85;69.85;94706.81;5156525;27;1901;-62
2023/10/25 10:00:23;;;;;;;;;;;;;;;19.87;70.07;94699.28;5156480;27;1032;-62
2023/10/25 10:02:54;;;;;;;;;;;;;;;19.88;70.46;94693.63;5156395;27;961;-61
2023/10/25 10:05:26;;;;;;;;;;;;;;;19.82;69.72;94697.22;5156363;27;1113;-61
2023/10/25 10:08:10;;;;;;;;;;;;;;;19.79;68.97;94699.59;5137806;27;1118;-62
2023/10/25 10:10:45;;;;;;;;;;;;;;;19.78;71.26;94711.50;5156339;27;1054;-62
2023/10/25 10:13:15;;;;;;;;;;;;;;;19.71;71.61;94700.72;5156144;27;1000;-61
2023/10/25 10:16:00;;;;;;;;;;;;;;;19.54;71.76;94692.38;5156170;27;1261;-61
2023/10/25 10:18:27;;;;;;;;;;;;;;;19.51;72.68;94682.00;5155965;27;1909;-61
2023/10/25 10:21:03;;;;;;;;;;;;;;;19.61;72.24;94670.59;5156037;27;1056;-62
2023/10/25 10:23:40;;;;;;;;;;;;;;;19.90;71.89;94671.69;5155944;27;965;-61
2023/10/25 10:26:08;;;;;;;;;;;;;;;20.14;71.07;94659.00;5156235;27;1026;-61
2023/10/25 10:28:37;;;;;;;;;;;;;;;20.29;69.82;94659.38;5156047;27;973;-61
2023/10/25 10:31:04;;;;;;;;;;;;;;;20.37;70.15;94650.06;5156049;27;961;-67
2023/10/25 10:33:30;;;;;;;;;;;;;;;20.35;69.21;94652.19;5126248;27;1169;-68
2023/10/25 10:35:59;;;;;;;;;;;;;;;20.43;69.70;94648.31;5135162;27;1021;-63
2023/10/25 10:38:25;;;;;;;;;;;;;;;20.43;68.88;94648.31;5134821;27;1909;-61
2023/10/25 10:40:51;;;;;;;;;;;;;;;20.39;68.69;94642.50;5134968;27;1036;-60
2023/10/25 10:43:20;;;;;;;;;;;;;;;20.39;69.18;94628.13;5135040;27;1019;-61
2023/10/25 10:45:50;;;;;;;;;;;;;;;20.35;68.64;94622.34;5135023;27;1037;-61
2023/10/25 10:48:21;;;;;;;;;;;;;;;20.35;67.13;94627.75;5134778;27;1095;-61
2023/10/25 10:50:48;;;;;;;;;;;;;;;20.39;67.49;94636.25;5134067;27;979;-61
2023/10/25 10:53:15;;;;;;;;;;;;;;;20.45;67.18;94641.59;5134905;27;1027;-61
2023/10/25 10:55:41;;;;;;;;;;;;;;;20.52;68.37;94635.22;5135007;27;996;-64
2023/10/25 10:58:07;;;;;;;;;;;;;;;20.53;67.23;94632.28;5116624;27;1897;-67
2023/10/25 11:00:33;;;;;;;;;;;;;;;20.55;66.31;94623.91;5134528;27;1044;-62
2023/10/25 11:03:00;;;;;;;;;;;;;;;20.48;66.79;94632.97;5134657;27;1068;-61
2023/10/25 11:05:27;;;;;;;;;;;;;;;20.46;67.62;94618.78;5134464;27;1040;-61
2023/10/25 11:07:56;;;;;;;;;;;;;;;20.53;68.13;94609.72;5134607;27;1134;-61
2023/10/25 11:10:22;;;;;;;;;;;;;;;20.63;65.09;94609.97;5116209;27;1028;-61
2023/10/25 11:12:50;;;;;;;;;;;;;;;20.81;65.37;94598.16;5134666;27;1068;-61
2023/10/25 11:15:16;;;;;;;;;;;;;;;20.93;66.05;94609.84;5116191;27;1143;-61
2023/10/25 11:17:43;;;;;;;;;;;;;;;21.01;66.04;94617.59;5134475;27;1041;-61
2023/10/25 11:20:09;;;;;;;;;;;;;;;21.08;65.21;94609.34;5116081;27;1906;-61
2023/10/25 11:22:36;;;;;;;;;;;;;;;21.06;64.33;94604.13;5134555;27;1248;-61
2023/10/25 11:25:07;;;;;;;;;;;;;;;21.12;64.35;94602.34;5134350;28;1028;-61
2023/10/25 11:27:33;;;;;;;;;;;;;;;21.18;64.03;94604.09;5134466;28;1047;-61
2023/10/25 11:30:02;;;;;;;;;;;;;;;21.19;64.79;94602.19;5134448;28;1024;-60
2023/10/25 11:32:28;;;;;;;;;;;;;;;21.14;64.14;94599.41;5136500;27;1196;-61
2023/10/25 11:34:56;;;;;;;;;;;;;;;21.05;65.22;94607.09;5154932;27;996;-61
2023/10/25 11:37:22;;;;;;;;;;;;;;;20.94;64.70;94599.78;5155096;27;1132;-61
2023/10/25 11:39:59;;;;;;;;;;;;;;;20.84;65.25;94594.97;5155044;27;1902;-61
2023/10/25 11:42:26;;;;;;;;;;;;;;;20.78;64.62;94591.31;5154915;27;964;-62
2023/10/25 11:44:53;;;;;;;;;;;;;;;20.79;64.34;94603.84;5154871;27;1151;-62
2023/10/25 11:47:20;;;;;;;;;;;;;;;20.73;65.25;94593.09;5154719;27;1102;-61
2023/10/25 11:49:55;;;;;;;;;;;;;;;20.63;65.48;94590.97;5136787;27;1027;-61
2023/10/25 11:52:22;;;;;;;;;;;;;;;20.55;65.89;94589.41;5154956;27;980;-62
2023/10/25 11:54:54;;;;;;;;;;;;;;;20.52;66.65;94583.63;5154986;27;1044;-62
2023/10/25 11:57:30;;;;;;;;;;;;;;;20.44;68.41;94573.94;5154725;27;1048;-62
2023/10/25 11:59:56;;;;;;;;;;;;;;;20.31;68.45;94569.56;5154742;27;1988;-61
2023/10/25 12:02:24;;;;;;;;;;;;;;;20.38;66.91;94580.34;5157368;27;972;-61
2023/10/25 12:04:50;;;;;;;;;;;;;;;20.42;68.41;94582.31;5158771;27;1114;-62
2023/10/25 12:07:17;;;;;;;;;;;;;;;20.33;69.19;94591.06;5158680;27;1071;-62
2023/10/25 12:09:45;;;;;;;;;;;;;;;20.28;68.99;94592.59;5158774;27;1006;-62
2023/10/25 12:12:11;;;;;;;;;;;;;;;20.22;69.49;94606.28;5158613;27;987;-62
2023/10/25 12:14:37;;;;;;;;;;;;;;;20.08;69.72;94614.63;5158558;27;960;-62
2023/10/25 12:17:04;;;;;;;;;;;;;;;20.05;71.94;94625.97;5158803;27;1051;-62
2023/10/25 12:19:30;;;;;;;;;;;;;;;19.84;74.89;94634.63;5158511;27;1996;-62
2023/10/25 12:21:57;;;;;;;;;;;;;;;19.61;76.13;94638.88;5140102;27;1082;-62
2023/10/25 12:24:26;;;;;;;;;;;;;;;19.47;79.71;94646.38;5147877;27;1003;-62
2023/10/25 12:26:53;;;;;;;;;;;;;;;19.36;85.99;94651.75;5137612;27;985;-63
2023/10/25 12:29:19;;;;;;;;;;;;;;;19.22;86.73;94651.09;5137510;27;1048;-64
2023/10/25 12:31:45;;;;;;;;;;;;;;;19.18;86.16;94649.84;5137727;27;956;-63
2023/10/25 12:34:12;;;;;;;;;;;;;;;19.17;88.10;94642.81;5137375;27;1173;-64
2023/10/25 12:36:38;;;;;;;;;;;;;;;19.16;91.16;94647.41;5137455;27;1102;-63
2023/10/25 12:39:04;;;;;;;;;;;;;;;19.13;92.74;94655.16;5137272;27;1988;-63
2023/10/25 12:41:32;;;;;;;;;;;;;;;19.03;97.41;94655.69;5137322;27;968;-63
2023/10/25 12:43:59;;;;;;;;;;;;;;;18.95;98.54;94659.50;5137355;27;1087;-61
2023/10/25 12:46:25;;;;;;;;;;;;;;;18.96;98.86;94649.50;5118987;27;1118;-61
2023/10/25 12:48:51;;;;;;;;;;;;;;;18.70;100.00;94641.41;5137192;27;1129;-61
2023/10/25 12:51:17;;;;;;;;;;;;;;;18.74;100.00;94639.06;5119049;27;964;-62
2023/10/25 12:53:43;;;;;;;;;;;;;;;18.64;100.00;94641.47;5137233;27;1051;-60
2023/10/25 12:56:09;;;;;;;;;;;;;;;18.46;100.00;94629.56;5137082;27;1071;-61
2023/10/25 12:58:35;;;;;;;;;;;;;;;18.37;100.00;94630.06;5137138;27;1986;-63